Terminal Aerodrome Forecast
Issued by NWS Lake Charles, LA

Home | Current Version | Previous Version | Text Only | Print | Product List | Glossary On
Versions: 1 2 3 4 5 6 7 8 9 10 11 12 13 14 15 16 17
000
FTUS44 KLCH 051729
TAFLFT
TAF
KLFT 051729Z 0518/0618 14010KT P6SM SCT035
     FM052300 11003KT P6SM SCT030 BKN160 BKN250
     FM061100 10003KT P6SM BKN025 BKN140
     FM061700 15008KT P6SM BKN045 BKN120=

USA.gov is the U.S. government's official web portal to all federal, state and local government web resources and services.